KERV

Kerrville Municipal / Louis Schreiner Field Airport

Kerrville, Texas, USA
METAR KERV 211555Z AUTO 18012G18KT 10SM OVC005 07/05 A3017 RMK AO2 T00650050
Observed Flight Rules
Jan-21 @ 15:55 UTC (17 minutes ago) Instrument Flight Rules
Wind Visibility Clouds
180° at 12 knots
 Gusting to 18 knots
10 miles
  • Overcast at 500' AGL
Temperatures Readings
Current 7°C / 45°F
Dewpoint 5°C / 41°F
Humidity 87%
Altimeter 30.17" Hg
Pressure 1021.72 hPa
Elevation 510
METAR KERV 211555Z AUTO 18012G18KT 10SM OVC005 07/05 A3017 RMK AO2 T00650050
Observed Flight Rules
Jan-21 @ 15:55 UTC
(17 minutes ago)
IFR
Wind Visibility
180° at 12 knots
 Gusting to 18 knots
10 miles
Clouds
  • Overcast at 500' AGL
Temperature Dewpoint
7°C / 45°F 5°C / 41°F
Humidity Altimeter Pressure
87% 30.17" Hg 1021.72 hPa